sensor_id;sensor_type;location;lat;lon;timestamp;P1;durP1;ratioP1;P2;durP2;ratioP2
40150;SDS011;25866;52.420;10.640;2022-11-18T00:01:03;8.33;;;5.70;;
40150;SDS011;25866;52.420;10.640;2022-11-18T00:03:36;12.03;;;6.10;;
40150;SDS011;25866;52.420;10.640;2022-11-18T00:06:03;8.10;;;5.80;;
40150;SDS011;25866;52.420;10.640;2022-11-18T00:08:31;7.57;;;5.80;;
40150;SDS011;25866;52.420;10.640;2022-11-18T00:11:03;8.27;;;5.70;;
40150;SDS011;25866;52.420;10.640;2022-11-18T00:13:33;8.67;;;5.50;;
40150;SDS011;25866;52.420;10.640;2022-11-18T00:16:17;8.13;;;5.50;;
40150;SDS011;25866;52.420;10.640;2022-11-18T00:18:43;8.03;;;6.07;;
40150;SDS011;25866;52.420;10.640;2022-11-18T00:21:10;9.97;;;6.07;;
40150;SDS011;25866;52.420;10.640;2022-11-18T00:23:37;7.87;;;5.77;;
40150;SDS011;25866;52.420;10.640;2022-11-18T00:26:04;10.00;;;5.90;;
40150;SDS011;25866;52.420;10.640;2022-11-18T00:28:32;8.17;;;5.50;;
40150;SDS011;25866;52.420;10.640;2022-11-18T00:31:02;6.77;;;5.30;;
40150;SDS011;25866;52.420;10.640;2022-11-18T00:33:32;9.07;;;6.17;;
40150;SDS011;25866;52.420;10.640;2022-11-18T00:35:58;7.73;;;6.03;;
40150;SDS011;25866;52.420;10.640;2022-11-18T00:38:24;11.00;;;6.57;;
40150;SDS011;25866;52.420;10.640;2022-11-18T00:41:04;10.90;;;6.93;;
40150;SDS011;25866;52.420;10.640;2022-11-18T00:43:31;9.70;;;6.60;;
40150;SDS011;25866;52.420;10.640;2022-11-18T00:45:58;9.23;;;6.90;;
40150;SDS011;25866;52.420;10.640;2022-11-18T00:48:24;10.57;;;7.37;;
40150;SDS011;25866;52.420;10.640;2022-11-18T00:50:50;10.47;;;7.43;;
40150;SDS011;25866;52.420;10.640;2022-11-18T00:53:25;9.43;;;7.10;;
40150;SDS011;25866;52.420;10.640;2022-11-18T00:55:52;12.57;;;7.67;;
40150;SDS011;25866;52.420;10.640;2022-11-18T00:58:18;11.07;;;7.07;;
40150;SDS011;25866;52.420;10.640;2022-11-18T01:00:48;12.20;;;7.73;;
40150;SDS011;25866;52.420;10.640;2022-11-18T01:03:17;12.83;;;7.57;;
40150;SDS011;25866;52.420;10.640;2022-11-18T01:05:44;10.20;;;6.83;;
40150;SDS011;25866;52.420;10.640;2022-11-18T01:08:10;12.80;;;7.80;;
40150;SDS011;25866;52.420;10.640;2022-11-18T01:10:37;11.47;;;8.00;;
40150;SDS011;25866;52.420;10.640;2022-11-18T01:13:04;12.60;;;8.67;;
40150;SDS011;25866;52.420;10.640;2022-11-18T01:15:44;10.90;;;7.70;;
40150;SDS011;25866;52.420;10.640;2022-11-18T01:18:13;11.20;;;8.07;;
40150;SDS011;25866;52.420;10.640;2022-11-18T01:20:39;11.47;;;8.40;;
40150;SDS011;25866;52.420;10.640;2022-11-18T01:23:05;12.57;;;8.97;;
40150;SDS011;25866;52.420;10.640;2022-11-18T01:25:31;11.07;;;8.00;;
40150;SDS011;25866;52.420;10.640;2022-11-18T01:27:59;12.10;;;8.80;;
40150;SDS011;25866;52.420;10.640;2022-11-18T01:30:25;12.77;;;8.27;;
40150;SDS011;25866;52.420;10.640;2022-11-18T01:32:50;11.77;;;7.90;;
40150;SDS011;25866;52.420;10.640;2022-11-18T01:35:16;12.30;;;8.63;;
40150;SDS011;25866;52.420;10.640;2022-11-18T01:37:42;15.07;;;9.90;;
40150;SDS011;25866;52.420;10.640;2022-11-18T01:40:09;16.13;;;8.60;;
40150;SDS011;25866;52.420;10.640;2022-11-18T01:42:35;17.77;;;9.73;;
40150;SDS011;25866;52.420;10.640;2022-11-18T01:47:42;12.87;;;8.63;;
40150;SDS011;25866;52.420;10.640;2022-11-18T01:50:13;16.13;;;8.90;;
40150;SDS011;25866;52.420;10.640;2022-11-18T01:52:42;14.23;;;8.77;;
40150;SDS011;25866;52.420;10.640;2022-11-18T01:55:10;13.23;;;8.50;;
40150;SDS011;25866;52.420;10.640;2022-11-18T01:57:41;18.30;;;9.70;;
40150;SDS011;25866;52.420;10.640;2022-11-18T02:00:09;15.33;;;9.63;;
40150;SDS011;25866;52.420;10.640;2022-11-18T02:02:36;17.57;;;9.97;;
40150;SDS011;25866;52.420;10.640;2022-11-18T02:05:06;15.83;;;9.30;;
40150;SDS011;25866;52.420;10.640;2022-11-18T02:07:36;16.33;;;10.93;;
40150;SDS011;25866;52.420;10.640;2022-11-18T02:10:21;16.30;;;9.43;;
40150;SDS011;25866;52.420;10.640;2022-11-18T02:12:49;16.30;;;10.00;;
40150;SDS011;25866;52.420;10.640;2022-11-18T02:15:22;17.37;;;10.20;;
40150;SDS011;25866;52.420;10.640;2022-11-18T02:20:43;16.57;;;10.77;;
40150;SDS011;25866;52.420;10.640;2022-11-18T02:23:26;19.83;;;10.20;;
40150;SDS011;25866;52.420;10.640;2022-11-18T02:26:13;14.93;;;9.10;;
40150;SDS011;25866;52.420;10.640;2022-11-18T02:28:59;18.17;;;9.77;;
40150;SDS011;25866;52.420;10.640;2022-11-18T02:31:40;16.93;;;10.07;;
40150;SDS011;25866;52.420;10.640;2022-11-18T02:37:26;14.43;;;8.93;;
40150;SDS011;25866;52.420;10.640;2022-11-18T02:39:56;17.97;;;9.77;;
40150;SDS011;25866;52.420;10.640;2022-11-18T02:42:31;18.10;;;10.43;;
40150;SDS011;25866;52.420;10.640;2022-11-18T02:45:03;21.53;;;10.63;;
40150;SDS011;25866;52.420;10.640;2022-11-18T02:47:33;16.17;;;10.30;;
40150;SDS011;25866;52.420;10.640;2022-11-18T02:50:03;19.40;;;10.97;;
40150;SDS011;25866;52.420;10.640;2022-11-18T02:52:32;16.37;;;10.17;;
40150;SDS011;25866;52.420;10.640;2022-11-18T02:55:01;18.33;;;10.67;;
40150;SDS011;25866;52.420;10.640;2022-11-18T02:57:31;17.80;;;11.13;;
40150;SDS011;25866;52.420;10.640;2022-11-18T02:59:59;18.20;;;11.13;;
40150;SDS011;25866;52.420;10.640;2022-11-18T03:02:25;20.07;;;11.10;;
40150;SDS011;25866;52.420;10.640;2022-11-18T03:05:46;20.50;;;11.20;;
40150;SDS011;25866;52.420;10.640;2022-11-18T03:08:32;19.40;;;11.23;;
40150;SDS011;25866;52.420;10.640;2022-11-18T03:11:28;16.70;;;11.13;;
40150;SDS011;25866;52.420;10.640;2022-11-18T03:14:29;17.90;;;10.63;;
40150;SDS011;25866;52.420;10.640;2022-11-18T03:17:08;18.53;;;10.33;;
40150;SDS011;25866;52.420;10.640;2022-11-18T03:19:53;19.47;;;11.93;;
40150;SDS011;25866;52.420;10.640;2022-11-18T03:25:08;20.37;;;12.40;;
40150;SDS011;25866;52.420;10.640;2022-11-18T03:27:47;21.57;;;12.77;;
40150;SDS011;25866;52.420;10.640;2022-11-18T03:30:27;22.27;;;12.73;;
40150;SDS011;25866;52.420;10.640;2022-11-18T03:33:04;22.47;;;12.50;;
40150;SDS011;25866;52.420;10.640;2022-11-18T03:35:36;21.83;;;12.90;;
40150;SDS011;25866;52.420;10.640;2022-11-18T03:38:12;20.87;;;12.87;;
40150;SDS011;25866;52.420;10.640;2022-11-18T03:40:43;19.00;;;12.40;;
40150;SDS011;25866;52.420;10.640;2022-11-18T03:43:17;24.47;;;13.10;;
40150;SDS011;25866;52.420;10.640;2022-11-18T03:45:48;23.83;;;13.63;;
40150;SDS011;25866;52.420;10.640;2022-11-18T03:48:18;20.70;;;13.10;;
40150;SDS011;25866;52.420;10.640;2022-11-18T03:51:04;20.80;;;13.47;;
40150;SDS011;25866;52.420;10.640;2022-11-18T03:53:33;22.37;;;13.43;;
40150;SDS011;25866;52.420;10.640;2022-11-18T03:56:17;19.50;;;12.63;;
40150;SDS011;25866;52.420;10.640;2022-11-18T03:58:48;24.43;;;13.87;;
40150;SDS011;25866;52.420;10.640;2022-11-18T04:01:39;24.10;;;14.10;;
40150;SDS011;25866;52.420;10.640;2022-11-18T04:04:07;23.07;;;14.10;;
40150;SDS011;25866;52.420;10.640;2022-11-18T04:06:52;26.63;;;14.93;;
40150;SDS011;25866;52.420;10.640;2022-11-18T04:09:40;23.83;;;13.97;;
40150;SDS011;25866;52.420;10.640;2022-11-18T04:12:12;29.73;;;15.80;;
40150;SDS011;25866;52.420;10.640;2022-11-18T04:14:42;22.10;;;14.10;;
40150;SDS011;25866;52.420;10.640;2022-11-18T04:17:13;24.80;;;14.33;;
40150;SDS011;25866;52.420;10.640;2022-11-18T04:19:42;24.47;;;14.00;;
40150;SDS011;25866;52.420;10.640;2022-11-18T04:22:08;26.87;;;15.23;;
40150;SDS011;25866;52.420;10.640;2022-11-18T04:24:35;24.70;;;14.50;;
40150;SDS011;25866;52.420;10.640;2022-11-18T04:27:02;25.37;;;15.37;;
40150;SDS011;25866;52.420;10.640;2022-11-18T04:29:29;25.00;;;15.17;;
40150;SDS011;25866;52.420;10.640;2022-11-18T04:31:56;25.03;;;14.30;;
40150;SDS011;25866;52.420;10.640;2022-11-18T04:34:23;26.80;;;14.97;;
40150;SDS011;25866;52.420;10.640;2022-11-18T04:36:49;25.17;;;14.77;;
40150;SDS011;25866;52.420;10.640;2022-11-18T04:39:15;24.83;;;15.07;;
40150;SDS011;25866;52.420;10.640;2022-11-18T04:41:42;25.30;;;14.87;;
40150;SDS011;25866;52.420;10.640;2022-11-18T04:44:31;24.63;;;13.73;;
40150;SDS011;25866;52.420;10.640;2022-11-18T04:47:00;21.50;;;13.37;;
40150;SDS011;25866;52.420;10.640;2022-11-18T04:49:27;29.10;;;15.27;;
40150;SDS011;25866;52.420;10.640;2022-11-18T04:51:55;22.80;;;13.90;;
40150;SDS011;25866;52.420;10.640;2022-11-18T04:54:22;23.27;;;13.40;;
40150;SDS011;25866;52.420;10.640;2022-11-18T04:56:49;23.13;;;13.23;;
40150;SDS011;25866;52.420;10.640;2022-11-18T04:59:18;23.53;;;13.73;;
40150;SDS011;25866;52.420;10.640;2022-11-18T05:01:47;26.10;;;13.27;;
40150;SDS011;25866;52.420;10.640;2022-11-18T05:04:13;25.20;;;13.50;;
40150;SDS011;25866;52.420;10.640;2022-11-18T05:06:42;26.20;;;13.43;;
40150;SDS011;25866;52.420;10.640;2022-11-18T05:09:08;21.03;;;13.90;;
40150;SDS011;25866;52.420;10.640;2022-11-18T05:11:34;24.53;;;13.97;;
40150;SDS011;25866;52.420;10.640;2022-11-18T05:14:18;19.63;;;12.17;;
40150;SDS011;25866;52.420;10.640;2022-11-18T05:16:44;20.87;;;13.30;;
40150;SDS011;25866;52.420;10.640;2022-11-18T05:19:10;22.70;;;12.73;;
40150;SDS011;25866;52.420;10.640;2022-11-18T05:21:36;19.63;;;12.07;;
40150;SDS011;25866;52.420;10.640;2022-11-18T05:24:03;21.70;;;13.13;;
40150;SDS011;25866;52.420;10.640;2022-11-18T05:26:29;21.57;;;12.80;;
40150;SDS011;25866;52.420;10.640;2022-11-18T05:28:55;25.33;;;14.17;;
40150;SDS011;25866;52.420;10.640;2022-11-18T05:31:21;24.20;;;13.37;;
40150;SDS011;25866;52.420;10.640;2022-11-18T05:33:47;23.03;;;13.00;;
40150;SDS011;25866;52.420;10.640;2022-11-18T05:36:17;29.37;;;13.50;;
40150;SDS011;25866;52.420;10.640;2022-11-18T05:38:44;20.50;;;12.63;;
40150;SDS011;25866;52.420;10.640;2022-11-18T05:41:12;23.00;;;12.53;;
40150;SDS011;25866;52.420;10.640;2022-11-18T05:43:58;25.70;;;14.53;;
40150;SDS011;25866;52.420;10.640;2022-11-18T05:46:24;24.57;;;13.47;;
40150;SDS011;25866;52.420;10.640;2022-11-18T05:48:50;20.80;;;12.87;;
40150;SDS011;25866;52.420;10.640;2022-11-18T05:51:15;23.53;;;13.87;;
40150;SDS011;25866;52.420;10.640;2022-11-18T05:53:42;23.40;;;13.40;;
40150;SDS011;25866;52.420;10.640;2022-11-18T05:56:16;22.03;;;13.53;;
40150;SDS011;25866;52.420;10.640;2022-11-18T05:58:50;20.67;;;13.37;;
40150;SDS011;25866;52.420;10.640;2022-11-18T06:01:19;22.47;;;13.90;;
40150;SDS011;25866;52.420;10.640;2022-11-18T06:09:55;29.00;;;16.00;;
40150;SDS011;25866;52.420;10.640;2022-11-18T06:12:39;25.47;;;15.10;;
40150;SDS011;25866;52.420;10.640;2022-11-18T06:15:11;29.63;;;15.30;;
40150;SDS011;25866;52.420;10.640;2022-11-18T06:17:53;31.70;;;14.17;;
40150;SDS011;25866;52.420;10.640;2022-11-18T06:23:08;19.87;;;12.40;;
40150;SDS011;25866;52.420;10.640;2022-11-18T06:25:39;20.63;;;13.13;;
40150;SDS011;25866;52.420;10.640;2022-11-18T06:28:10;20.97;;;11.73;;
40150;SDS011;25866;52.420;10.640;2022-11-18T06:30:40;25.83;;;13.17;;
40150;SDS011;25866;52.420;10.640;2022-11-18T06:33:07;21.70;;;13.67;;
40150;SDS011;25866;52.420;10.640;2022-11-18T06:35:33;23.97;;;14.07;;
40150;SDS011;25866;52.420;10.640;2022-11-18T06:37:59;21.93;;;13.53;;
40150;SDS011;25866;52.420;10.640;2022-11-18T06:40:25;21.83;;;13.10;;
40150;SDS011;25866;52.420;10.640;2022-11-18T06:42:51;23.00;;;14.20;;
40150;SDS011;25866;52.420;10.640;2022-11-18T06:45:37;25.97;;;14.10;;
40150;SDS011;25866;52.420;10.640;2022-11-18T06:48:34;23.03;;;14.50;;
40150;SDS011;25866;52.420;10.640;2022-11-18T06:51:10;26.43;;;14.87;;
40150;SDS011;25866;52.420;10.640;2022-11-18T06:54:10;32.00;;;16.17;;
40150;SDS011;25866;52.420;10.640;2022-11-18T06:56:46;27.47;;;16.43;;
40150;SDS011;25866;52.420;10.640;2022-11-18T06:59:17;31.73;;;16.83;;
40150;SDS011;25866;52.420;10.640;2022-11-18T07:01:54;27.40;;;16.00;;
40150;SDS011;25866;52.420;10.640;2022-11-18T07:04:21;29.20;;;17.07;;
40150;SDS011;25866;52.420;10.640;2022-11-18T07:06:47;30.43;;;17.10;;
40150;SDS011;25866;52.420;10.640;2022-11-18T07:09:13;27.97;;;16.97;;
40150;SDS011;25866;52.420;10.640;2022-11-18T07:11:39;28.50;;;17.57;;
40150;SDS011;25866;52.420;10.640;2022-11-18T07:14:07;27.13;;;15.67;;
40150;SDS011;25866;52.420;10.640;2022-11-18T07:16:33;24.67;;;15.00;;
40150;SDS011;25866;52.420;10.640;2022-11-18T07:21:38;27.10;;;15.67;;
40150;SDS011;25866;52.420;10.640;2022-11-18T07:24:06;25.43;;;15.30;;
40150;SDS011;25866;52.420;10.640;2022-11-18T07:26:34;25.33;;;16.07;;
40150;SDS011;25866;52.420;10.640;2022-11-18T07:29:01;26.57;;;15.60;;
40150;SDS011;25866;52.420;10.640;2022-11-18T07:31:28;25.87;;;16.23;;
40150;SDS011;25866;52.420;10.640;2022-11-18T07:33:54;33.47;;;16.67;;
40150;SDS011;25866;52.420;10.640;2022-11-18T07:36:27;28.80;;;15.13;;
40150;SDS011;25866;52.420;10.640;2022-11-18T07:38:53;24.80;;;15.97;;
40150;SDS011;25866;52.420;10.640;2022-11-18T07:43:48;24.63;;;14.67;;
40150;SDS011;25866;52.420;10.640;2022-11-18T07:46:18;24.33;;;15.53;;
40150;SDS011;25866;52.420;10.640;2022-11-18T07:48:46;22.97;;;12.90;;
40150;SDS011;25866;52.420;10.640;2022-11-18T07:51:14;22.73;;;14.90;;
40150;SDS011;25866;52.420;10.640;2022-11-18T07:53:42;23.40;;;14.20;;
40150;SDS011;25866;52.420;10.640;2022-11-18T07:56:09;24.43;;;14.40;;
40150;SDS011;25866;52.420;10.640;2022-11-18T07:58:36;19.07;;;12.57;;
40150;SDS011;25866;52.420;10.640;2022-11-18T08:01:09;22.23;;;13.13;;
40150;SDS011;25866;52.420;10.640;2022-11-18T08:03:37;20.10;;;13.17;;
40150;SDS011;25866;52.420;10.640;2022-11-18T08:06:06;16.97;;;11.63;;
40150;SDS011;25866;52.420;10.640;2022-11-18T08:08:33;22.70;;;13.27;;
40150;SDS011;25866;52.420;10.640;2022-11-18T08:11:00;21.33;;;12.87;;
40150;SDS011;25866;52.420;10.640;2022-11-18T08:13:27;19.30;;;12.13;;
40150;SDS011;25866;52.420;10.640;2022-11-18T08:15:53;18.40;;;12.57;;
40150;SDS011;25866;52.420;10.640;2022-11-18T08:18:22;21.60;;;14.00;;
40150;SDS011;25866;52.420;10.640;2022-11-18T08:20:49;22.50;;;14.03;;
40150;SDS011;25866;52.420;10.640;2022-11-18T08:23:15;21.20;;;13.53;;
40150;SDS011;25866;52.420;10.640;2022-11-18T08:25:42;23.13;;;13.60;;
40150;SDS011;25866;52.420;10.640;2022-11-18T08:28:11;24.57;;;14.67;;
40150;SDS011;25866;52.420;10.640;2022-11-18T08:30:38;23.30;;;15.53;;
40150;SDS011;25866;52.420;10.640;2022-11-18T08:33:04;23.23;;;15.10;;
40150;SDS011;25866;52.420;10.640;2022-11-18T08:35:31;25.63;;;16.37;;
40150;SDS011;25866;52.420;10.640;2022-11-18T08:37:58;26.00;;;15.83;;
40150;SDS011;25866;52.420;10.640;2022-11-18T08:40:24;27.23;;;15.73;;
40150;SDS011;25866;52.420;10.640;2022-11-18T08:42:50;26.53;;;16.30;;
40150;SDS011;25866;52.420;10.640;2022-11-18T08:45:16;23.73;;;14.37;;
40150;SDS011;25866;52.420;10.640;2022-11-18T08:47:42;25.40;;;16.20;;
40150;SDS011;25866;52.420;10.640;2022-11-18T08:50:09;24.87;;;16.10;;
40150;SDS011;25866;52.420;10.640;2022-11-18T08:52:36;28.30;;;16.40;;
40150;SDS011;25866;52.420;10.640;2022-11-18T08:55:02;25.43;;;15.57;;
40150;SDS011;25866;52.420;10.640;2022-11-18T08:57:28;24.80;;;15.13;;
40150;SDS011;25866;52.420;10.640;2022-11-18T08:59:55;22.70;;;14.33;;
40150;SDS011;25866;52.420;10.640;2022-11-18T09:02:21;22.83;;;15.33;;
40150;SDS011;25866;52.420;10.640;2022-11-18T09:04:51;25.50;;;15.83;;
40150;SDS011;25866;52.420;10.640;2022-11-18T09:07:17;23.17;;;14.57;;
40150;SDS011;25866;52.420;10.640;2022-11-18T09:09:44;25.00;;;15.80;;
40150;SDS011;25866;52.420;10.640;2022-11-18T09:12:10;25.80;;;15.93;;
40150;SDS011;25866;52.420;10.640;2022-11-18T09:14:42;22.77;;;14.10;;
40150;SDS011;25866;52.420;10.640;2022-11-18T09:17:08;23.63;;;14.97;;
40150;SDS011;25866;52.420;10.640;2022-11-18T09:19:34;25.67;;;15.73;;
40150;SDS011;25866;52.420;10.640;2022-11-18T09:22:00;25.20;;;14.63;;
40150;SDS011;25866;52.420;10.640;2022-11-18T09:24:26;22.87;;;14.37;;
40150;SDS011;25866;52.420;10.640;2022-11-18T09:26:52;23.13;;;13.77;;
40150;SDS011;25866;52.420;10.640;2022-11-18T09:29:18;27.10;;;13.23;;
40150;SDS011;25866;52.420;10.640;2022-11-18T09:31:46;22.07;;;13.47;;
40150;SDS011;25866;52.420;10.640;2022-11-18T09:34:12;21.57;;;13.50;;
40150;SDS011;25866;52.420;10.640;2022-11-18T09:36:38;24.13;;;14.23;;
40150;SDS011;25866;52.420;10.640;2022-11-18T09:39:05;22.17;;;13.23;;
40150;SDS011;25866;52.420;10.640;2022-11-18T09:49:53;23.70;;;14.47;;
40150;SDS011;25866;52.420;10.640;2022-11-18T09:52:27;22.97;;;15.03;;
40150;SDS011;25866;52.420;10.640;2022-11-18T09:55:17;25.03;;;15.07;;
40150;SDS011;25866;52.420;10.640;2022-11-18T09:57:44;26.97;;;15.50;;
40150;SDS011;25866;52.420;10.640;2022-11-18T10:05:22;25.57;;;15.30;;
40150;SDS011;25866;52.420;10.640;2022-11-18T10:16:18;24.97;;;14.37;;
40150;SDS011;25866;52.420;10.640;2022-11-18T10:24:23;29.63;;;17.03;;
40150;SDS011;25866;52.420;10.640;2022-11-18T10:26:55;25.73;;;16.10;;
40150;SDS011;25866;52.420;10.640;2022-11-18T10:29:23;26.80;;;16.63;;
40150;SDS011;25866;52.420;10.640;2022-11-18T10:32:03;25.83;;;14.80;;
40150;SDS011;25866;52.420;10.640;2022-11-18T10:34:32;25.87;;;15.77;;
40150;SDS011;25866;52.420;10.640;2022-11-18T10:37:04;27.03;;;16.60;;
40150;SDS011;25866;52.420;10.640;2022-11-18T10:39:31;24.10;;;15.30;;
40150;SDS011;25866;52.420;10.640;2022-11-18T10:42:00;26.83;;;15.73;;
40150;SDS011;25866;52.420;10.640;2022-11-18T10:44:35;24.93;;;15.97;;
40150;SDS011;25866;52.420;10.640;2022-11-18T10:49:51;25.77;;;14.47;;
40150;SDS011;25866;52.420;10.640;2022-11-18T10:52:18;21.30;;;13.77;;
40150;SDS011;25866;52.420;10.640;2022-11-18T10:55:03;23.93;;;15.07;;
40150;SDS011;25866;52.420;10.640;2022-11-18T10:57:49;46.13;;;25.57;;
40150;SDS011;25866;52.420;10.640;2022-11-18T11:00:35;24.83;;;15.00;;
40150;SDS011;25866;52.420;10.640;2022-11-18T11:09:05;23.70;;;14.83;;
40150;SDS011;25866;52.420;10.640;2022-11-18T11:14:36;22.03;;;13.53;;
40150;SDS011;25866;52.420;10.640;2022-11-18T11:17:16;23.10;;;14.40;;
40150;SDS011;25866;52.420;10.640;2022-11-18T11:19:58;18.57;;;11.30;;
40150;SDS011;25866;52.420;10.640;2022-11-18T11:22:55;26.03;;;14.17;;
40150;SDS011;25866;52.420;10.640;2022-11-18T11:37:12;22.87;;;14.23;;
40150;SDS011;25866;52.420;10.640;2022-11-18T11:51:35;22.50;;;13.23;;
40150;SDS011;25866;52.420;10.640;2022-11-18T12:02:38;19.50;;;12.77;;
40150;SDS011;25866;52.420;10.640;2022-11-18T12:07:59;20.47;;;13.07;;
40150;SDS011;25866;52.420;10.640;2022-11-18T12:10:35;18.03;;;11.70;;
40150;SDS011;25866;52.420;10.640;2022-11-18T12:13:10;20.07;;;13.57;;
40150;SDS011;25866;52.420;10.640;2022-11-18T12:18:25;20.67;;;14.13;;
40150;SDS011;25866;52.420;10.640;2022-11-18T12:22:00;22.93;;;14.17;;
40150;SDS011;25866;52.420;10.640;2022-11-18T12:26:45;24.13;;;15.40;;
40150;SDS011;25866;52.420;10.640;2022-11-18T12:31:48;23.07;;;15.50;;
40150;SDS011;25866;52.420;10.640;2022-11-18T12:34:31;24.30;;;15.23;;
40150;SDS011;25866;52.420;10.640;2022-11-18T12:37:37;24.93;;;15.10;;
40150;SDS011;25866;52.420;10.640;2022-11-18T12:39:59;24.83;;;15.70;;
40150;SDS011;25866;52.420;10.640;2022-11-18T12:42:32;25.77;;;15.43;;
40150;SDS011;25866;52.420;10.640;2022-11-18T12:50:57;25.33;;;16.03;;
40150;SDS011;25866;52.420;10.640;2022-11-18T12:53:36;28.30;;;16.80;;
40150;SDS011;25866;52.420;10.640;2022-11-18T12:58:46;24.63;;;15.80;;
40150;SDS011;25866;52.420;10.640;2022-11-18T13:01:15;26.17;;;16.10;;
40150;SDS011;25866;52.420;10.640;2022-11-18T13:03:43;28.57;;;16.97;;
40150;SDS011;25866;52.420;10.640;2022-11-18T13:08:37;31.00;;;19.13;;
40150;SDS011;25866;52.420;10.640;2022-11-18T13:11:15;30.13;;;17.03;;
40150;SDS011;25866;52.420;10.640;2022-11-18T13:14:03;28.13;;;17.93;;
40150;SDS011;25866;52.420;10.640;2022-11-18T13:16:48;29.47;;;17.63;;
40150;SDS011;25866;52.420;10.640;2022-11-18T13:19:32;26.33;;;16.73;;
40150;SDS011;25866;52.420;10.640;2022-11-18T13:21:59;27.27;;;17.03;;
40150;SDS011;25866;52.420;10.640;2022-11-18T13:24:45;27.63;;;17.83;;
40150;SDS011;25866;52.420;10.640;2022-11-18T13:29:59;30.83;;;18.03;;
40150;SDS011;25866;52.420;10.640;2022-11-18T13:32:30;26.80;;;16.90;;
40150;SDS011;25866;52.420;10.640;2022-11-18T13:38:03;27.63;;;16.63;;
40150;SDS011;25866;52.420;10.640;2022-11-18T13:40:42;28.27;;;17.47;;
40150;SDS011;25866;52.420;10.640;2022-11-18T13:43:38;26.90;;;18.37;;
40150;SDS011;25866;52.420;10.640;2022-11-18T13:46:11;29.50;;;17.60;;
40150;SDS011;25866;52.420;10.640;2022-11-18T13:48:42;82.37;;;40.40;;
40150;SDS011;25866;52.420;10.640;2022-11-18T13:51:20;24.23;;;16.10;;
40150;SDS011;25866;52.420;10.640;2022-11-18T13:53:47;25.70;;;16.27;;
40150;SDS011;25866;52.420;10.640;2022-11-18T13:56:14;22.17;;;15.83;;
40150;SDS011;25866;52.420;10.640;2022-11-18T13:58:57;24.70;;;16.43;;
40150;SDS011;25866;52.420;10.640;2022-11-18T14:02:07;24.17;;;15.90;;
40150;SDS011;25866;52.420;10.640;2022-11-18T14:05:14;24.23;;;14.63;;
40150;SDS011;25866;52.420;10.640;2022-11-18T14:08:06;22.47;;;14.93;;
40150;SDS011;25866;52.420;10.640;2022-11-18T14:10:55;23.53;;;15.23;;
40150;SDS011;25866;52.420;10.640;2022-11-18T14:13:32;27.90;;;16.97;;
40150;SDS011;25866;52.420;10.640;2022-11-18T14:18:46;24.93;;;16.27;;
40150;SDS011;25866;52.420;10.640;2022-11-18T14:21:13;21.43;;;15.80;;
40150;SDS011;25866;52.420;10.640;2022-11-18T14:24:00;21.87;;;14.73;;
40150;SDS011;25866;52.420;10.640;2022-11-18T14:26:40;26.57;;;14.57;;
40150;SDS011;25866;52.420;10.640;2022-11-18T14:29:16;22.07;;;12.87;;
40150;SDS011;25866;52.420;10.640;2022-11-18T14:34:41;17.93;;;12.43;;
40150;SDS011;25866;52.420;10.640;2022-11-18T14:37:10;21.67;;;13.40;;
40150;SDS011;25866;52.420;10.640;2022-11-18T14:39:37;19.73;;;12.97;;
40150;SDS011;25866;52.420;10.640;2022-11-18T14:42:03;18.73;;;13.47;;
40150;SDS011;25866;52.420;10.640;2022-11-18T14:44:31;20.00;;;12.90;;
40150;SDS011;25866;52.420;10.640;2022-11-18T14:46:57;19.50;;;12.93;;
40150;SDS011;25866;52.420;10.640;2022-11-18T14:49:28;17.50;;;12.17;;
40150;SDS011;25866;52.420;10.640;2022-11-18T14:51:55;18.77;;;11.57;;
40150;SDS011;25866;52.420;10.640;2022-11-18T14:54:22;20.40;;;12.77;;
40150;SDS011;25866;52.420;10.640;2022-11-18T14:56:50;20.63;;;12.93;;
40150;SDS011;25866;52.420;10.640;2022-11-18T14:59:19;19.00;;;11.90;;
40150;SDS011;25866;52.420;10.640;2022-11-18T15:01:45;17.67;;;11.70;;
40150;SDS011;25866;52.420;10.640;2022-11-18T15:04:12;15.77;;;10.80;;
40150;SDS011;25866;52.420;10.640;2022-11-18T15:06:39;17.90;;;11.30;;
40150;SDS011;25866;52.420;10.640;2022-11-18T15:09:05;17.17;;;10.50;;
40150;SDS011;25866;52.420;10.640;2022-11-18T15:11:32;15.57;;;10.13;;
40150;SDS011;25866;52.420;10.640;2022-11-18T15:13:58;16.13;;;10.17;;
40150;SDS011;25866;52.420;10.640;2022-11-18T15:16:25;14.30;;;9.30;;
40150;SDS011;25866;52.420;10.640;2022-11-18T15:18:53;14.33;;;9.57;;
40150;SDS011;25866;52.420;10.640;2022-11-18T15:21:21;14.10;;;9.20;;
40150;SDS011;25866;52.420;10.640;2022-11-18T15:23:47;14.00;;;8.97;;
40150;SDS011;25866;52.420;10.640;2022-11-18T15:26:21;14.53;;;10.03;;
40150;SDS011;25866;52.420;10.640;2022-11-18T15:29:17;14.57;;;9.00;;
40150;SDS011;25866;52.420;10.640;2022-11-18T15:31:45;16.97;;;9.40;;
40150;SDS011;25866;52.420;10.640;2022-11-18T15:34:12;13.23;;;8.47;;
40150;SDS011;25866;52.420;10.640;2022-11-18T15:36:41;17.27;;;10.27;;
40150;SDS011;25866;52.420;10.640;2022-11-18T15:39:07;13.60;;;9.90;;
40150;SDS011;25866;52.420;10.640;2022-11-18T15:41:34;15.27;;;9.57;;
40150;SDS011;25866;52.420;10.640;2022-11-18T15:44:02;13.40;;;9.20;;
40150;SDS011;25866;52.420;10.640;2022-11-18T15:46:28;15.07;;;9.80;;
40150;SDS011;25866;52.420;10.640;2022-11-18T15:48:54;14.33;;;10.70;;
40150;SDS011;25866;52.420;10.640;2022-11-18T15:51:22;14.03;;;9.27;;
40150;SDS011;25866;52.420;10.640;2022-11-18T15:53:49;14.07;;;10.03;;
40150;SDS011;25866;52.420;10.640;2022-11-18T15:58:53;13.07;;;8.93;;
40150;SDS011;25866;52.420;10.640;2022-11-18T16:01:28;13.70;;;9.40;;
40150;SDS011;25866;52.420;10.640;2022-11-18T16:03:56;15.77;;;9.40;;
40150;SDS011;25866;52.420;10.640;2022-11-18T16:06:22;14.33;;;8.93;;
40150;SDS011;25866;52.420;10.640;2022-11-18T16:08:49;14.63;;;9.80;;
40150;SDS011;25866;52.420;10.640;2022-11-18T16:11:16;14.43;;;9.27;;
40150;SDS011;25866;52.420;10.640;2022-11-18T16:14:02;14.80;;;8.80;;
40150;SDS011;25866;52.420;10.640;2022-11-18T16:16:31;13.53;;;8.43;;
40150;SDS011;25866;52.420;10.640;2022-11-18T16:18:59;14.33;;;9.17;;
40150;SDS011;25866;52.420;10.640;2022-11-18T16:21:27;13.40;;;7.77;;
40150;SDS011;25866;52.420;10.640;2022-11-18T16:23:56;13.73;;;8.67;;
40150;SDS011;25866;52.420;10.640;2022-11-18T16:26:23;13.27;;;8.60;;
40150;SDS011;25866;52.420;10.640;2022-11-18T16:28:49;14.23;;;9.23;;
40150;SDS011;25866;52.420;10.640;2022-11-18T16:31:16;14.30;;;9.40;;
40150;SDS011;25866;52.420;10.640;2022-11-18T16:34:07;12.87;;;8.37;;
40150;SDS011;25866;52.420;10.640;2022-11-18T16:36:35;14.53;;;9.07;;
40150;SDS011;25866;52.420;10.640;2022-11-18T16:39:12;10.93;;;7.97;;
40150;SDS011;25866;52.420;10.640;2022-11-18T16:41:40;13.03;;;8.73;;
40150;SDS011;25866;52.420;10.640;2022-11-18T16:44:08;13.10;;;8.83;;
40150;SDS011;25866;52.420;10.640;2022-11-18T16:46:36;13.60;;;8.73;;
40150;SDS011;25866;52.420;10.640;2022-11-18T16:49:04;13.50;;;9.00;;
40150;SDS011;25866;52.420;10.640;2022-11-18T16:51:32;15.10;;;9.60;;